sensor_id;sensor_type;location;lat;lon;timestamp;pressure;altitude;pressure_sealevel;temperature;humidity
75447;BME280;64024;55.820;37.574;2023-04-25T00:01:40;98608.06;;;23.87;24.00
75447;BME280;64024;55.820;37.574;2023-04-25T00:04:07;98608.38;;;23.85;23.95
75447;BME280;64024;55.820;37.574;2023-04-25T00:06:34;98601.97;;;23.81;24.27
75447;BME280;64024;55.820;37.574;2023-04-25T00:09:03;98607.41;;;23.81;23.92
75447;BME280;64024;55.820;37.574;2023-04-25T00:11:29;98607.22;;;23.77;24.08
75447;BME280;64024;55.820;37.574;2023-04-25T00:13:56;98607.03;;;23.74;24.24
75447;BME280;64024;55.820;37.574;2023-04-25T00:16:22;98603.00;;;23.71;24.36
75447;BME280;64024;55.820;37.574;2023-04-25T00:18:49;98600.94;;;23.68;24.00
75447;BME280;64024;55.820;37.574;2023-04-25T00:21:18;98605.84;;;23.66;24.09
75447;BME280;64024;55.820;37.574;2023-04-25T00:23:45;98614.28;;;23.65;24.43
75447;BME280;64024;55.820;37.574;2023-04-25T00:26:11;98611.06;;;23.63;24.17
75447;BME280;64024;55.820;37.574;2023-04-25T00:28:37;98595.41;;;23.60;23.92
75447;BME280;64024;55.820;37.574;2023-04-25T00:31:03;98601.47;;;23.56;24.16
75447;BME280;64024;55.820;37.574;2023-04-25T00:33:29;98618.03;;;23.55;24.15
75447;BME280;64024;55.820;37.574;2023-04-25T00:35:55;98617.88;;;23.51;24.24
75447;BME280;64024;55.820;37.574;2023-04-25T00:38:21;98616.25;;;23.50;24.38
75447;BME280;64024;55.820;37.574;2023-04-25T00:40:48;98619.28;;;23.49;24.08
75447;BME280;64024;55.820;37.574;2023-04-25T00:43:14;98623.38;;;23.46;24.32
75447;BME280;64024;55.820;37.574;2023-04-25T00:45:40;98622.13;;;23.44;24.26
75447;BME280;64024;55.820;37.574;2023-04-25T00:48:06;98612.19;;;23.39;24.66
75447;BME280;64024;55.820;37.574;2023-04-25T00:50:33;98617.41;;;23.36;24.73
75447;BME280;64024;55.820;37.574;2023-04-25T00:53:00;98615.31;;;23.32;24.50
75447;BME280;64024;55.820;37.574;2023-04-25T00:55:27;98609.38;;;23.30;24.67
75447;BME280;64024;55.820;37.574;2023-04-25T00:57:53;98607.78;;;23.29;24.82
75447;BME280;64024;55.820;37.574;2023-04-25T01:00:19;98606.50;;;23.27;25.34
75447;BME280;64024;55.820;37.574;2023-04-25T01:02:46;98608.41;;;23.26;24.93
75447;BME280;64024;55.820;37.574;2023-04-25T01:05:12;98595.16;;;23.25;24.97
75447;BME280;64024;55.820;37.574;2023-04-25T01:07:39;98585.44;;;23.24;24.91
75447;BME280;64024;55.820;37.574;2023-04-25T01:10:05;98584.97;;;23.30;24.72
75447;BME280;64024;55.820;37.574;2023-04-25T01:12:31;98596.28;;;23.24;24.41
75447;BME280;64024;55.820;37.574;2023-04-25T01:14:57;98584.13;;;23.21;24.32
75447;BME280;64024;55.820;37.574;2023-04-25T01:17:23;98605.00;;;23.21;24.20
75447;BME280;64024;55.820;37.574;2023-04-25T01:19:49;98590.34;;;23.22;24.44
75447;BME280;64024;55.820;37.574;2023-04-25T01:22:16;98596.56;;;23.22;24.57
75447;BME280;64024;55.820;37.574;2023-04-25T01:24:43;98599.78;;;23.24;24.98
75447;BME280;64024;55.820;37.574;2023-04-25T01:27:09;98604.09;;;23.25;24.61
75447;BME280;64024;55.820;37.574;2023-04-25T01:29:36;98601.09;;;23.27;24.83
75447;BME280;64024;55.820;37.574;2023-04-25T01:32:02;98592.63;;;23.28;24.95
75447;BME280;64024;55.820;37.574;2023-04-25T01:34:28;98597.75;;;23.30;25.16
75447;BME280;64024;55.820;37.574;2023-04-25T01:36:54;98592.03;;;23.31;25.43
75447;BME280;64024;55.820;37.574;2023-04-25T01:39:20;98589.78;;;23.33;25.67
75447;BME280;64024;55.820;37.574;2023-04-25T01:41:46;98590.31;;;23.36;25.66
75447;BME280;64024;55.820;37.574;2023-04-25T01:44:13;98587.28;;;23.37;25.84
75447;BME280;64024;55.820;37.574;2023-04-25T01:46:40;98590.50;;;23.39;25.90
75447;BME280;64024;55.820;37.574;2023-04-25T01:49:06;98590.97;;;23.41;25.66
75447;BME280;64024;55.820;37.574;2023-04-25T01:51:32;98593.38;;;23.43;26.05
75447;BME280;64024;55.820;37.574;2023-04-25T01:53:59;98586.84;;;23.44;26.00
75447;BME280;64024;55.820;37.574;2023-04-25T01:56:25;98581.91;;;23.46;26.24
75447;BME280;64024;55.820;37.574;2023-04-25T01:58:51;98580.78;;;23.47;26.20
75447;BME280;64024;55.820;37.574;2023-04-25T02:01:17;98591.34;;;23.48;26.35
75447;BME280;64024;55.820;37.574;2023-04-25T02:03:43;98581.78;;;23.51;26.57
75447;BME280;64024;55.820;37.574;2023-04-25T02:06:09;98588.03;;;23.51;26.28
75447;BME280;64024;55.820;37.574;2023-04-25T02:08:35;98582.28;;;23.53;26.45
75447;BME280;64024;55.820;37.574;2023-04-25T02:11:02;98587.16;;;23.65;26.37
75447;BME280;64024;55.820;37.574;2023-04-25T02:13:28;98581.53;;;23.61;26.71
75447;BME280;64024;55.820;37.574;2023-04-25T02:15:54;98578.31;;;23.59;26.78
75447;BME280;64024;55.820;37.574;2023-04-25T02:18:20;98576.41;;;23.60;26.91
75447;BME280;64024;55.820;37.574;2023-04-25T02:20:46;98579.13;;;23.60;26.84
75447;BME280;64024;55.820;37.574;2023-04-25T02:23:12;98572.59;;;23.61;26.91
75447;BME280;64024;55.820;37.574;2023-04-25T02:25:38;98571.50;;;23.62;27.19
75447;BME280;64024;55.820;37.574;2023-04-25T02:28:04;98575.78;;;23.63;26.98
75447;BME280;64024;55.820;37.574;2023-04-25T02:30:30;98570.09;;;23.64;27.22
75447;BME280;64024;55.820;37.574;2023-04-25T02:32:55;98576.81;;;23.67;27.20
75447;BME280;64024;55.820;37.574;2023-04-25T02:35:21;98574.09;;;23.67;27.64
75447;BME280;64024;55.820;37.574;2023-04-25T02:37:47;98572.69;;;23.69;27.44
75447;BME280;64024;55.820;37.574;2023-04-25T02:40:13;98577.78;;;23.71;27.67
75447;BME280;64024;55.820;37.574;2023-04-25T02:42:39;98570.16;;;23.73;27.32
75447;BME280;64024;55.820;37.574;2023-04-25T02:45:05;98578.47;;;23.76;27.43
75447;BME280;64024;55.820;37.574;2023-04-25T02:47:31;98580.88;;;23.78;27.72
75447;BME280;64024;55.820;37.574;2023-04-25T02:49:56;98575.91;;;23.80;27.72
75447;BME280;64024;55.820;37.574;2023-04-25T02:52:22;98576.91;;;23.84;27.57
75447;BME280;64024;55.820;37.574;2023-04-25T02:54:47;98579.00;;;23.87;27.67
75447;BME280;64024;55.820;37.574;2023-04-25T02:57:13;98579.50;;;23.89;28.12
75447;BME280;64024;55.820;37.574;2023-04-25T02:59:39;98577.25;;;23.91;27.82
75447;BME280;64024;55.820;37.574;2023-04-25T03:02:05;98578.56;;;23.94;27.67
75447;BME280;64024;55.820;37.574;2023-04-25T03:04:31;98587.69;;;23.98;27.82
75447;BME280;64024;55.820;37.574;2023-04-25T03:06:56;98585.16;;;24.01;28.13
75447;BME280;64024;55.820;37.574;2023-04-25T03:09:22;98581.31;;;24.02;27.92
75447;BME280;64024;55.820;37.574;2023-04-25T03:11:48;98583.09;;;24.07;28.18
75447;BME280;64024;55.820;37.574;2023-04-25T03:14:13;98583.28;;;24.11;27.97
75447;BME280;64024;55.820;37.574;2023-04-25T03:16:39;98573.69;;;24.13;28.07
75447;BME280;64024;55.820;37.574;2023-04-25T03:19:05;98582.31;;;24.15;28.23
75447;BME280;64024;55.820;37.574;2023-04-25T03:21:32;98584.72;;;24.17;28.45
75447;BME280;64024;55.820;37.574;2023-04-25T03:24:00;98588.72;;;24.19;28.31
75447;BME280;64024;55.820;37.574;2023-04-25T03:26:25;98585.41;;;24.22;28.29
75447;BME280;64024;55.820;37.574;2023-04-25T03:28:51;98590.50;;;24.24;28.35
75447;BME280;64024;55.820;37.574;2023-04-25T03:31:17;98589.88;;;24.27;28.06
75447;BME280;64024;55.820;37.574;2023-04-25T03:33:43;98590.34;;;24.29;28.33
75447;BME280;64024;55.820;37.574;2023-04-25T03:36:08;98597.09;;;24.31;28.58
75447;BME280;64024;55.820;37.574;2023-04-25T03:38:35;98595.16;;;24.32;28.38
75447;BME280;64024;55.820;37.574;2023-04-25T03:41:01;98598.34;;;24.34;28.58
75447;BME280;64024;55.820;37.574;2023-04-25T03:43:27;98598.84;;;24.36;28.41
75447;BME280;64024;55.820;37.574;2023-04-25T03:45:53;98595.56;;;24.39;28.84
75447;BME280;64024;55.820;37.574;2023-04-25T03:48:19;98597.63;;;24.42;28.84
75447;BME280;64024;55.820;37.574;2023-04-25T03:50:47;98596.53;;;24.43;28.53
75447;BME280;64024;55.820;37.574;2023-04-25T03:53:13;98595.06;;;24.46;28.54
75447;BME280;64024;55.820;37.574;2023-04-25T03:55:38;98593.34;;;24.50;29.35
75447;BME280;64024;55.820;37.574;2023-04-25T03:58:04;98588.41;;;24.52;28.94
75447;BME280;64024;55.820;37.574;2023-04-25T04:00:31;98582.31;;;24.55;29.11
75447;BME280;64024;55.820;37.574;2023-04-25T04:02:57;98583.28;;;24.59;29.39
75447;BME280;64024;55.820;37.574;2023-04-25T04:05:22;98580.72;;;24.63;29.42
75447;BME280;64024;55.820;37.574;2023-04-25T04:07:48;98583.63;;;24.66;29.36
75447;BME280;64024;55.820;37.574;2023-04-25T04:10:14;98577.56;;;24.69;29.57
75447;BME280;64024;55.820;37.574;2023-04-25T04:12:40;98582.84;;;24.74;29.76
75447;BME280;64024;55.820;37.574;2023-04-25T04:15:06;98571.34;;;24.77;29.64
75447;BME280;64024;55.820;37.574;2023-04-25T04:17:32;98581.25;;;24.82;29.84
75447;BME280;64024;55.820;37.574;2023-04-25T04:19:58;98578.69;;;24.86;29.77
75447;BME280;64024;55.820;37.574;2023-04-25T04:22:24;98573.91;;;24.91;29.47
75447;BME280;64024;55.820;37.574;2023-04-25T04:24:50;98577.59;;;24.95;29.29
75447;BME280;64024;55.820;37.574;2023-04-25T04:27:17;98583.97;;;24.99;29.56
75447;BME280;64024;55.820;37.574;2023-04-25T04:29:43;98591.19;;;25.04;29.43
75447;BME280;64024;55.820;37.574;2023-04-25T04:32:09;98585.09;;;25.07;29.36
75447;BME280;64024;55.820;37.574;2023-04-25T04:34:35;98588.81;;;25.11;29.47
75447;BME280;64024;55.820;37.574;2023-04-25T04:37:01;98582.75;;;25.14;29.21
75447;BME280;64024;55.820;37.574;2023-04-25T04:39:26;98589.94;;;25.19;29.14
75447;BME280;64024;55.820;37.574;2023-04-25T04:41:52;98587.84;;;25.24;29.53
75447;BME280;64024;55.820;37.574;2023-04-25T04:44:18;98582.25;;;25.29;29.29
75447;BME280;64024;55.820;37.574;2023-04-25T04:46:44;98582.91;;;25.35;29.46
75447;BME280;64024;55.820;37.574;2023-04-25T04:49:11;98588.97;;;25.41;29.27
75447;BME280;64024;55.820;37.574;2023-04-25T04:51:38;98591.22;;;25.47;29.31
75447;BME280;64024;55.820;37.574;2023-04-25T04:54:04;98586.06;;;25.54;29.46
75447;BME280;64024;55.820;37.574;2023-04-25T04:56:30;98580.94;;;25.62;29.16
75447;BME280;64024;55.820;37.574;2023-04-25T04:58:59;98573.09;;;25.69;29.09
75447;BME280;64024;55.820;37.574;2023-04-25T05:01:26;98580.75;;;25.75;29.06
75447;BME280;64024;55.820;37.574;2023-04-25T05:03:52;98577.56;;;25.82;29.04
75447;BME280;64024;55.820;37.574;2023-04-25T05:06:19;98587.63;;;25.90;29.04
75447;BME280;64024;55.820;37.574;2023-04-25T05:08:44;98584.41;;;25.97;29.12
75447;BME280;64024;55.820;37.574;2023-04-25T05:11:10;98572.19;;;26.03;28.85
75447;BME280;64024;55.820;37.574;2023-04-25T05:13:36;98579.88;;;26.10;28.92
75447;BME280;64024;55.820;37.574;2023-04-25T05:16:02;98573.91;;;26.16;28.90
75447;BME280;64024;55.820;37.574;2023-04-25T05:18:28;98575.63;;;26.21;28.88
75447;BME280;64024;55.820;37.574;2023-04-25T05:20:55;98579.00;;;26.26;28.92
75447;BME280;64024;55.820;37.574;2023-04-25T05:23:21;98579.16;;;26.30;29.03
75447;BME280;64024;55.820;37.574;2023-04-25T05:25:46;98576.22;;;26.35;29.13
75447;BME280;64024;55.820;37.574;2023-04-25T05:28:13;98579.91;;;26.39;29.02
75447;BME280;64024;55.820;37.574;2023-04-25T05:30:39;98581.19;;;26.42;29.63
75447;BME280;64024;55.820;37.574;2023-04-25T05:33:05;98580.53;;;26.45;29.67
75447;BME280;64024;55.820;37.574;2023-04-25T05:35:31;98584.84;;;26.46;29.73
75447;BME280;64024;55.820;37.574;2023-04-25T05:37:56;98578.75;;;26.49;29.55
75447;BME280;64024;55.820;37.574;2023-04-25T05:40:22;98575.72;;;26.50;29.89
75447;BME280;64024;55.820;37.574;2023-04-25T05:42:47;98578.09;;;26.52;29.65
75447;BME280;64024;55.820;37.574;2023-04-25T05:45:13;98579.69;;;26.53;29.50
75447;BME280;64024;55.820;37.574;2023-04-25T05:47:39;98572.31;;;26.53;29.64
75447;BME280;64024;55.820;37.574;2023-04-25T05:50:05;98579.38;;;26.55;29.56
75447;BME280;64024;55.820;37.574;2023-04-25T05:52:31;98572.78;;;26.56;29.49
75447;BME280;64024;55.820;37.574;2023-04-25T05:54:57;98570.84;;;26.56;29.63
75447;BME280;64024;55.820;37.574;2023-04-25T05:57:26;98570.50;;;26.58;30.06
75447;BME280;64024;55.820;37.574;2023-04-25T05:59:52;98575.16;;;26.57;29.64
75447;BME280;64024;55.820;37.574;2023-04-25T06:02:19;98568.59;;;26.58;29.90
75447;BME280;64024;55.820;37.574;2023-04-25T06:04:48;98562.34;;;26.58;30.11
75447;BME280;64024;55.820;37.574;2023-04-25T06:07:14;98574.84;;;26.59;30.29
75447;BME280;64024;55.820;37.574;2023-04-25T06:09:40;98563.13;;;26.58;30.34
75447;BME280;64024;55.820;37.574;2023-04-25T06:12:06;98551.44;;;26.58;29.84
75447;BME280;64024;55.820;37.574;2023-04-25T06:14:35;98558.81;;;26.57;30.00
75447;BME280;64024;55.820;37.574;2023-04-25T06:17:02;98558.03;;;26.57;30.08
75447;BME280;64024;55.820;37.574;2023-04-25T06:19:35;98547.91;;;26.57;29.93
75447;BME280;64024;55.820;37.574;2023-04-25T06:22:02;98552.56;;;26.57;30.26
75447;BME280;64024;55.820;37.574;2023-04-25T06:24:28;98538.94;;;26.57;30.30
75447;BME280;64024;55.820;37.574;2023-04-25T06:26:54;98536.22;;;26.57;30.31
75447;BME280;64024;55.820;37.574;2023-04-25T06:29:19;98539.75;;;26.57;30.18
75447;BME280;64024;55.820;37.574;2023-04-25T06:31:45;98535.44;;;26.56;30.09
75447;BME280;64024;55.820;37.574;2023-04-25T06:34:11;98538.16;;;26.56;29.98
75447;BME280;64024;55.820;37.574;2023-04-25T06:36:37;98532.69;;;26.56;29.62
75447;BME280;64024;55.820;37.574;2023-04-25T06:39:02;98537.34;;;26.56;30.08
75447;BME280;64024;55.820;37.574;2023-04-25T06:41:28;98539.28;;;26.55;29.86
75447;BME280;64024;55.820;37.574;2023-04-25T06:43:54;98531.09;;;26.55;30.02
75447;BME280;64024;55.820;37.574;2023-04-25T06:46:20;98536.56;;;26.55;29.72
75447;BME280;64024;55.820;37.574;2023-04-25T06:48:45;98539.28;;;26.55;30.30
75447;BME280;64024;55.820;37.574;2023-04-25T06:51:11;98534.63;;;26.56;30.24
75447;BME280;64024;55.820;37.574;2023-04-25T06:53:39;98537.34;;;26.56;30.33
75447;BME280;64024;55.820;37.574;2023-04-25T06:56:08;98538.16;;;26.56;30.06
75447;BME280;64024;55.820;37.574;2023-04-25T06:58:34;98542.81;;;26.56;29.87
75447;BME280;64024;55.820;37.574;2023-04-25T07:00:59;98540.88;;;26.56;30.06
75447;BME280;64024;55.820;37.574;2023-04-25T07:03:25;98536.56;;;26.55;30.43
75447;BME280;64024;55.820;37.574;2023-04-25T07:05:51;98539.28;;;26.55;30.00
75447;BME280;64024;55.820;37.574;2023-04-25T07:08:16;98535.75;;;26.55;29.82
75447;BME280;64024;55.820;37.574;2023-04-25T07:10:42;98538.50;;;26.55;30.14
75447;BME280;64024;55.820;37.574;2023-04-25T07:13:08;98544.75;;;26.55;29.91
75447;BME280;64024;55.820;37.574;2023-04-25T07:15:34;98541.22;;;26.55;29.79
75447;BME280;64024;55.820;37.574;2023-04-25T07:18:00;98539.28;;;26.55;30.04
75447;BME280;64024;55.820;37.574;2023-04-25T07:20:25;98531.09;;;26.55;30.04
75447;BME280;64024;55.820;37.574;2023-04-25T07:22:52;98539.28;;;26.55;30.07
75447;BME280;64024;55.820;37.574;2023-04-25T07:25:19;98530.31;;;26.55;29.96
75447;BME280;64024;55.820;37.574;2023-04-25T07:27:44;98542.31;;;26.53;29.84
75447;BME280;64024;55.820;37.574;2023-04-25T07:30:11;98536.06;;;26.53;29.68
75447;BME280;64024;55.820;37.574;2023-04-25T07:32:38;98532.56;;;26.52;29.46
75447;BME280;64024;55.820;37.574;2023-04-25T07:35:04;98537.22;;;26.52;29.29
75447;BME280;64024;55.820;37.574;2023-04-25T07:37:30;98529.38;;;26.50;29.34
75447;BME280;64024;55.820;37.574;2023-04-25T07:39:55;98530.50;;;26.49;29.36
75447;BME280;64024;55.820;37.574;2023-04-25T07:42:21;98524.25;;;26.49;29.24
75447;BME280;64024;55.820;37.574;2023-04-25T07:44:46;98531.28;;;26.50;29.38
75447;BME280;64024;55.820;37.574;2023-04-25T07:47:12;98528.91;;;26.48;29.25
75447;BME280;64024;55.820;37.574;2023-04-25T07:49:39;98533.22;;;26.49;28.52
75447;BME280;64024;55.820;37.574;2023-04-25T07:52:05;98533.22;;;26.49;28.21
75447;BME280;64024;55.820;37.574;2023-04-25T07:54:32;98531.63;;;26.48;27.58
75447;BME280;64024;55.820;37.574;2023-04-25T07:56:58;98538.22;;;26.47;27.35
75447;BME280;64024;55.820;37.574;2023-04-25T07:59:24;98533.91;;;26.46;26.85
75447;BME280;64024;55.820;37.574;2023-04-25T08:01:50;98534.69;;;26.47;27.25
75447;BME280;64024;55.820;37.574;2023-04-25T08:04:16;98531.97;;;26.47;27.19
75447;BME280;64024;55.820;37.574;2023-04-25T08:06:42;98535.00;;;26.45;26.67
75447;BME280;64024;55.820;37.574;2023-04-25T08:09:09;98530.34;;;26.46;26.73
75447;BME280;64024;55.820;37.574;2023-04-25T08:11:35;98529.56;;;26.45;26.39
75447;BME280;64024;55.820;37.574;2023-04-25T08:14:01;98522.50;;;26.44;26.29
75447;BME280;64024;55.820;37.574;2023-04-25T08:16:28;98522.03;;;26.42;26.38
75447;BME280;64024;55.820;37.574;2023-04-25T08:18:54;98525.06;;;26.41;26.27
75447;BME280;64024;55.820;37.574;2023-04-25T08:21:20;98528.13;;;26.39;26.20
75447;BME280;64024;55.820;37.574;2023-04-25T08:23:46;98530.38;;;26.37;25.81
75447;BME280;64024;55.820;37.574;2023-04-25T08:26:12;98525.59;;;26.34;25.46
75447;BME280;64024;55.820;37.574;2023-04-25T08:28:38;98527.38;;;26.30;25.50
75447;BME280;64024;55.820;37.574;2023-04-25T08:31:04;98525.78;;;26.29;25.38
75447;BME280;64024;55.820;37.574;2023-04-25T08:33:30;98519.06;;;26.26;25.40
75447;BME280;64024;55.820;37.574;2023-04-25T08:35:56;98521.31;;;26.24;25.68
75447;BME280;64024;55.820;37.574;2023-04-25T08:38:22;98527.44;;;26.21;25.35
75447;BME280;64024;55.820;37.574;2023-04-25T08:40:49;98511.75;;;26.18;25.39
75447;BME280;64024;55.820;37.574;2023-04-25T08:43:18;98513.97;;;26.16;25.28
75447;BME280;64024;55.820;37.574;2023-04-25T08:45:45;98518.97;;;26.14;25.15
75447;BME280;64024;55.820;37.574;2023-04-25T08:48:16;98509.66;;;26.15;25.35
75447;BME280;64024;55.820;37.574;2023-04-25T08:50:51;98505.34;;;26.14;25.12
75447;BME280;64024;55.820;37.574;2023-04-25T08:53:22;98512.25;;;26.12;25.13
75447;BME280;64024;55.820;37.574;2023-04-25T08:55:48;98499.31;;;26.09;24.68
75447;BME280;64024;55.820;37.574;2023-04-25T08:58:14;98503.09;;;26.16;24.92
75447;BME280;64024;55.820;37.574;2023-04-25T09:00:41;98508.13;;;26.06;25.08
75447;BME280;64024;55.820;37.574;2023-04-25T09:03:06;98502.72;;;25.97;24.79
75447;BME280;64024;55.820;37.574;2023-04-25T09:05:33;98506.44;;;25.92;25.02
75447;BME280;64024;55.820;37.574;2023-04-25T09:07:58;98497.78;;;25.90;25.10
75447;BME280;64024;55.820;37.574;2023-04-25T09:10:26;98490.25;;;25.87;25.02
75447;BME280;64024;55.820;37.574;2023-04-25T09:13:11;98489.47;;;25.87;24.87
75447;BME280;64024;55.820;37.574;2023-04-25T09:15:54;98493.16;;;25.82;24.74
75447;BME280;64024;55.820;37.574;2023-04-25T09:23:39;98480.38;;;25.74;25.06
75447;BME280;64024;55.820;37.574;2023-04-25T09:26:07;98479.91;;;25.72;25.15
75447;BME280;64024;55.820;37.574;2023-04-25T09:28:34;98478.63;;;25.69;25.19
75447;BME280;64024;55.820;37.574;2023-04-25T09:31:01;98480.88;;;25.67;25.24
75447;BME280;64024;55.820;37.574;2023-04-25T09:33:29;98469.19;;;25.67;25.36
75447;BME280;64024;55.820;37.574;2023-04-25T09:36:02;98468.38;;;25.66;25.68
75447;BME280;64024;55.820;37.574;2023-04-25T09:38:30;98483.13;;;25.65;25.64
75447;BME280;64024;55.820;37.574;2023-04-25T09:40:56;98472.88;;;25.62;25.57
75447;BME280;64024;55.820;37.574;2023-04-25T09:43:23;98470.50;;;25.61;25.86
75447;BME280;64024;55.820;37.574;2023-04-25T09:45:52;98461.84;;;25.59;25.53
75447;BME280;64024;55.820;37.574;2023-04-25T09:48:18;98465.69;;;25.58;25.77
75447;BME280;64024;55.820;37.574;2023-04-25T09:51:10;98471.47;;;25.56;25.86
75447;BME280;64024;55.820;37.574;2023-04-25T09:53:36;98470.69;;;25.56;26.08
75447;BME280;64024;55.820;37.574;2023-04-25T09:56:06;98464.44;;;25.55;25.98
75447;BME280;64024;55.820;37.574;2023-04-25T09:58:34;98463.97;;;25.53;26.06
75447;BME280;64024;55.820;37.574;2023-04-25T10:01:04;98471.00;;;25.54;25.99
75447;BME280;64024;55.820;37.574;2023-04-25T10:03:32;98459.31;;;25.53;25.78
75447;BME280;64024;55.820;37.574;2023-04-25T10:06:08;98453.06;;;25.53;25.51
75447;BME280;64024;55.820;37.574;2023-04-25T10:08:36;98455.34;;;25.51;25.63
75447;BME280;64024;55.820;37.574;2023-04-25T10:11:04;98445.09;;;25.48;25.44
75447;BME280;64024;55.820;37.574;2023-04-25T10:13:31;98450.88;;;25.46;25.30
75447;BME280;64024;55.820;37.574;2023-04-25T10:15:57;98448.13;;;25.55;25.32
75447;BME280;64024;55.820;37.574;2023-04-25T10:18:27;98448.94;;;25.47;25.24
75447;BME280;64024;55.820;37.574;2023-04-25T10:20:55;98446.38;;;25.42;25.30
75447;BME280;64024;55.820;37.574;2023-04-25T10:23:21;98433.13;;;25.40;25.24
75447;BME280;64024;55.820;37.574;2023-04-25T10:25:50;98431.03;;;25.37;25.09
75447;BME280;64024;55.820;37.574;2023-04-25T10:28:17;98436.00;;;25.35;25.13
75447;BME280;64024;55.820;37.574;2023-04-25T10:31:02;98434.09;;;25.36;25.15
75447;BME280;64024;55.820;37.574;2023-04-25T10:33:38;98435.22;;;25.35;25.58
75447;BME280;64024;55.820;37.574;2023-04-25T10:36:13;98427.84;;;25.35;25.65
75447;BME280;64024;55.820;37.574;2023-04-25T10:38:42;98434.09;;;25.36;25.48
75447;BME280;64024;55.820;37.574;2023-04-25T10:41:09;98425.13;;;25.35;25.43
75447;BME280;64024;55.820;37.574;2023-04-25T10:46:26;98422.09;;;25.37;25.17
75447;BME280;64024;55.820;37.574;2023-04-25T10:48:54;98417.78;;;25.36;24.86
75447;BME280;64024;55.820;37.574;2023-04-25T10:51:26;98406.41;;;25.34;24.87
75447;BME280;64024;55.820;37.574;2023-04-25T10:56:28;98410.25;;;25.33;25.05
75447;BME280;64024;55.820;37.574;2023-04-25T10:59:11;98399.88;;;25.35;25.18
75447;BME280;64024;55.820;37.574;2023-04-25T11:04:29;98391.03;;;25.38;25.23
75447;BME280;64024;55.820;37.574;2023-04-25T11:09:39;98386.25;;;25.35;24.84
75447;BME280;64024;55.820;37.574;2023-04-25T11:12:07;98382.75;;;25.34;24.54
75447;BME280;64024;55.820;37.574;2023-04-25T11:14:35;98380.81;;;25.35;24.56
75447;BME280;64024;55.820;37.574;2023-04-25T11:17:00;98373.41;;;25.44;24.64
75447;BME280;64024;55.820;37.574;2023-04-25T11:19:28;98372.81;;;25.38;24.62
75447;BME280;64024;55.820;37.574;2023-04-25T11:21:58;98367.22;;;25.35;24.68
75447;BME280;64024;55.820;37.574;2023-04-25T11:24:31;98365.59;;;25.34;24.17
75447;BME280;64024;55.820;37.574;2023-04-25T11:27:00;98361.63;;;25.31;24.25
75447;BME280;64024;55.820;37.574;2023-04-25T11:29:31;98346.44;;;25.30;24.08
75447;BME280;64024;55.820;37.574;2023-04-25T11:31:57;98352.53;;;25.27;23.66
75447;BME280;64024;55.820;37.574;2023-04-25T11:34:27;98358.28;;;25.25;23.78
75447;BME280;64024;55.820;37.574;2023-04-25T11:36:56;98357.03;;;25.23;23.67
75447;BME280;64024;55.820;37.574;2023-04-25T11:39:26;98360.06;;;25.21;23.33
75447;BME280;64024;55.820;37.574;2023-04-25T11:41:53;98341.34;;;25.20;23.77
75447;BME280;64024;55.820;37.574;2023-04-25T11:44:19;98347.94;;;25.19;23.83
75447;BME280;64024;55.820;37.574;2023-04-25T11:46:46;98345.22;;;25.19;23.73
75447;BME280;64024;55.820;37.574;2023-04-25T11:49:13;98330.47;;;25.20;23.70
75447;BME280;64024;55.820;37.574;2023-04-25T11:51:42;98337.50;;;25.21;23.69
75447;BME280;64024;55.820;37.574;2023-04-25T11:54:09;98335.59;;;25.21;23.73
75447;BME280;64024;55.820;37.574;2023-04-25T11:56:35;98337.19;;;25.22;23.59
75447;BME280;64024;55.820;37.574;2023-04-25T11:59:05;98329.03;;;25.22;23.51
75447;BME280;64024;55.820;37.574;2023-04-25T12:01:32;98323.59;;;25.22;23.58
75447;BME280;64024;55.820;37.574;2023-04-25T12:04:09;98320.88;;;25.22;23.78
75447;BME280;64024;55.820;37.574;2023-04-25T12:06:40;98328.25;;;25.22;23.67
75447;BME280;64024;55.820;37.574;2023-04-25T12:09:10;98318.16;;;25.22;23.59
75447;BME280;64024;55.820;37.574;2023-04-25T12:11:56;98318.97;;;25.23;23.78
75447;BME280;64024;55.820;37.574;2023-04-25T12:14:23;98315.09;;;25.24;23.96
75447;BME280;64024;55.820;37.574;2023-04-25T12:16:50;98304.22;;;25.24;24.13
75447;BME280;64024;55.820;37.574;2023-04-25T12:19:17;98297.66;;;25.25;23.87
75447;BME280;64024;55.820;37.574;2023-04-25T12:21:44;98297.34;;;25.26;24.20
75447;BME280;64024;55.820;37.574;2023-04-25T12:24:18;98293.50;;;25.27;24.48
75447;BME280;64024;55.820;37.574;2023-04-25T12:26:52;98295.09;;;25.28;24.63
75447;BME280;64024;55.820;37.574;2023-04-25T12:29:25;98281.97;;;25.31;24.57
75447;BME280;64024;55.820;37.574;2023-04-25T12:31:52;98284.34;;;25.32;24.85
75447;BME280;64024;55.820;37.574;2023-04-25T12:34:19;98280.50;;;25.33;24.92
75447;BME280;64024;55.820;37.574;2023-04-25T12:36:45;98273.94;;;25.34;24.82
75447;BME280;64024;55.820;37.574;2023-04-25T12:39:18;98270.09;;;25.35;24.78
75447;BME280;64024;55.820;37.574;2023-04-25T12:41:46;98263.53;;;25.36;24.88
75447;BME280;64024;55.820;37.574;2023-04-25T12:44:12;98265.13;;;25.37;24.64
75447;BME280;64024;55.820;37.574;2023-04-25T12:46:39;98263.19;;;25.38;24.69
75447;BME280;64024;55.820;37.574;2023-04-25T12:49:06;98252.00;;;25.39;24.52
75447;BME280;64024;55.820;37.574;2023-04-25T12:51:33;98250.47;;;25.50;24.60
75447;BME280;64024;55.820;37.574;2023-04-25T12:54:00;98254.19;;;25.46;24.31
75447;BME280;64024;55.820;37.574;2023-04-25T12:56:29;98245.91;;;25.42;24.40
75447;BME280;64024;55.820;37.574;2023-04-25T12:58:55;98239.97;;;25.40;24.39
75447;BME280;64024;55.820;37.574;2023-04-25T13:01:22;98232.63;;;25.41;24.45
75447;BME280;64024;55.820;37.574;2023-04-25T13:03:48;98231.81;;;25.40;24.19
75447;BME280;64024;55.820;37.574;2023-04-25T13:06:14;98238.41;;;25.39;24.41